Aqualoyalty — A8ZC6 — position and weather

sailwx.info

Track history (hours):
 
Tides and Currents Weather Stations Pressure Air Temp Water Temp Dewpoint Dewpoint Depression Visibility Wind Speed Wind Dir Waves Ship Positions

Aqualoyalty

Last reported at 2018-Feb-02 16:02 UTC. Time now 2018-Feb-23 10:37 UTC.
Position N 25°13' E 122°59'.
Warning: this ship's position is 20 days out of date.

Length 249 m; draft 13.9 m.

Type: Tanker. MMSI: 636015177.

Date/timePositionNaut miles runAvg speedWind from/ knotsBaromVisibWave heightAir tempDewpointWater temp
2018-Feb-02 16:02N 25°13' E 122°59'5 8.9
2018-Feb-02 15:29N 25°08' E 122°57'8 8.6
2018-Feb-02 14:30N 24°60' E 122°54'5 9.0
2018-Feb-02 14:00N 24°56' E 122°52'5 9.0
2018-Feb-02 13:30N 24°51' E 122°51'4 9.0
2018-Feb-02 13:00N 24°47' E 122°49'5 9.3
2018-Feb-02 12:30N 24°43' E 122°48'5 9.4
2018-Feb-02 12:00N 24°38' E 122°46'5 9.3
2018-Feb-02 11:30N 24°34' E 122°44'5 9.3
2018-Feb-02 11:00N 24°29' E 122°43'4 8.9
2018-Feb-02 10:30N 24°25' E 122°41'4 8.8
2018-Feb-02 10:00N 24°21' E 122°39'510.8
2018-Feb-02 09:30N 24°17' E 122°36'611.8
2018-Feb-02 09:00N 24°12' E 122°33'611.8
2018-Feb-02 08:30N 24°06' E 122°30'611.9
2018-Feb-02 08:00N 24°01' E 122°27'612.2
2018-Feb-02 07:29N 23°56' E 122°23'612.4
2018-Feb-02 07:00N 23°50' E 122°21'5712.4
2018-Feb-02 02:23N 22°60' E 121°51'711.4
2018-Feb-02 01:44N 22°53' E 121°47'1812.0
2018-Feb-02 00:15N 22°37' E 121°39'312.3
2018-Feb-01 23:59N 22°34' E 121°37'612.0
2018-Feb-01 23:30N 22°29' E 121°34'611.9
2018-Feb-01 23:00N 22°24' E 121°31'1211.6
2018-Feb-01 21:59N 22°14' E 121°25'612.4
2018-Feb-01 21:30N 22°09' E 121°22'  
2018-Jan-27 04:45N 01°15' E 104°02'312.0
2018-Jan-27 04:30N 01°14' E 103°59'611.9
2018-Jan-27 04:00N 01°12' E 103°54'612.4
2018-Jan-27 03:30N 01°09' E 103°48'611.4
2018-Jan-27 02:58N 01°05' E 103°43'510.4
2018-Jan-27 02:30N 01°03' E 103°39'5 9.7
2018-Jan-27 02:00N 01°05' E 103°35'510.7
2018-Jan-27 01:30N 01°09' E 103°31'612.1
2018-Jan-27 01:00N 01°14' E 103°28'2 0.6
2018-Jan-26 21:28N 01°16' E 103°27'0 0.1
2018-Jan-26 18:58N 01°16' E 103°27'0 0.0
2018-Jan-26 16:10N 01°16' E 103°27'0 0.0
2018-Jan-26 15:55N 01°16' E 103°27'0 0.0
2018-Jan-26 15:10N 01°16' E 103°27'0 0.0
2018-Jan-26 15:01N 01°16' E 103°27'0 0.0
2018-Jan-26 14:31N 01°16' E 103°27'0 0.0
2018-Jan-26 13:52N 01°16' E 103°27'0 0.0
2018-Jan-26 13:22N 01°16' E 103°27'0 0.0
2018-Jan-26 13:01N 01°16' E 103°27'0 0.4
2018-Jan-26 12:31N 01°16' E 103°27'1 2.8
2018-Jan-26 11:59N 01°15' E 103°28'3 5.3
2018-Jan-26 11:29N 01°14' E 103°30'3 6.0
2018-Jan-26 11:00N 01°16' E 103°33'4 7.4
2018-Jan-26 10:30N 01°19' E 103°33'  
Track history (hours):
 
Tides and Currents Weather Stations Pressure Air Temp Water Temp Dewpoint Dewpoint Depression Visibility Wind Speed Wind Dir Waves Ship Positions

Aqualoyalty

Last reported at 2018-Feb-02 16:02 UTC. Time now 2018-Feb-23 10:37 UTC.
Position N 25°13' E 122°59'.
Warning: this ship's position is 20 days out of date.

Length 249 m; draft 13.9 m.

Type: Tanker. MMSI: 636015177.

Date/timePositionNaut miles runAvg speedWind from/ knotsBaromVisibWave heightAir tempDewpointWater temp
2018-Feb-02 16:02N 25°13' E 122°59'5 8.9
2018-Feb-02 15:29N 25°08' E 122°57'8 8.6
2018-Feb-02 14:30N 24°60' E 122°54'5 9.0
2018-Feb-02 14:00N 24°56' E 122°52'5 9.0
2018-Feb-02 13:30N 24°51' E 122°51'4 9.0
2018-Feb-02 13:00N 24°47' E 122°49'5 9.3
2018-Feb-02 12:30N 24°43' E 122°48'5 9.4
2018-Feb-02 12:00N 24°38' E 122°46'5 9.3
2018-Feb-02 11:30N 24°34' E 122°44'5 9.3
2018-Feb-02 11:00N 24°29' E 122°43'4 8.9
2018-Feb-02 10:30N 24°25' E 122°41'4 8.8
2018-Feb-02 10:00N 24°21' E 122°39'510.8
2018-Feb-02 09:30N 24°17' E 122°36'611.8
2018-Feb-02 09:00N 24°12' E 122°33'611.8
2018-Feb-02 08:30N 24°06' E 122°30'611.9
2018-Feb-02 08:00N 24°01' E 122°27'612.2
2018-Feb-02 07:29N 23°56' E 122°23'612.4
2018-Feb-02 07:00N 23°50' E 122°21'5712.4
2018-Feb-02 02:23N 22°60' E 121°51'711.4
2018-Feb-02 01:44N 22°53' E 121°47'1812.0
2018-Feb-02 00:15N 22°37' E 121°39'312.3
2018-Feb-01 23:59N 22°34' E 121°37'612.0
2018-Feb-01 23:30N 22°29' E 121°34'611.9
2018-Feb-01 23:00N 22°24' E 121°31'1211.6
2018-Feb-01 21:59N 22°14' E 121°25'612.4
2018-Feb-01 21:30N 22°09' E 121°22'  
2018-Jan-27 04:45N 01°15' E 104°02'312.0
2018-Jan-27 04:30N 01°14' E 103°59'611.9
2018-Jan-27 04:00N 01°12' E 103°54'612.4
2018-Jan-27 03:30N 01°09' E 103°48'611.4
2018-Jan-27 02:58N 01°05' E 103°43'510.4
2018-Jan-27 02:30N 01°03' E 103°39'5 9.7
2018-Jan-27 02:00N 01°05' E 103°35'510.7
2018-Jan-27 01:30N 01°09' E 103°31'612.1
2018-Jan-27 01:00N 01°14' E 103°28'2 0.6
2018-Jan-26 21:28N 01°16' E 103°27'0 0.1
2018-Jan-26 18:58N 01°16' E 103°27'0 0.0
2018-Jan-26 16:10N 01°16' E 103°27'0 0.0
2018-Jan-26 15:55N 01°16' E 103°27'0 0.0
2018-Jan-26 15:10N 01°16' E 103°27'0 0.0
2018-Jan-26 15:01N 01°16' E 103°27'0 0.0
2018-Jan-26 14:31N 01°16' E 103°27'0 0.0
2018-Jan-26 13:52N 01°16' E 103°27'0 0.0
2018-Jan-26 13:22N 01°16' E 103°27'0 0.0
2018-Jan-26 13:01N 01°16' E 103°27'0 0.4
2018-Jan-26 12:31N 01°16' E 103°27'1 2.8
2018-Jan-26 11:59N 01°15' E 103°28'3 5.3
2018-Jan-26 11:29N 01°14' E 103°30'3 6.0
2018-Jan-26 11:00N 01°16' E 103°33'4 7.4
2018-Jan-26 10:30N 01°19' E 103°33'  

Dump ship's entire track history